createdAt,value
2018-03-19T19:12:29.443Z,48.90
2018-03-19T19:15:59.931Z,48.97
2018-03-19T19:18:26.977Z,39.87
2018-03-19T19:20:53.215Z,47.53
2018-03-19T19:23:20.066Z,46.03
2018-03-19T19:25:46.790Z,41.67
2018-03-19T19:28:13.041Z,35.67
2018-03-19T19:30:39.278Z,38.33
2018-03-19T19:33:05.508Z,36.00
2018-03-19T19:35:31.869Z,36.50
2018-03-19T19:37:58.342Z,35.80
2018-03-19T19:40:24.639Z,34.33
2018-03-19T19:42:51.572Z,33.07
2018-03-19T19:45:17.771Z,32.40
2018-03-19T19:47:44.057Z,35.47
2018-03-19T19:50:10.367Z,36.57
2018-03-19T19:52:36.843Z,35.07
2018-03-19T19:55:03.162Z,33.10
2018-03-19T19:57:29.603Z,32.97
2018-03-19T20:04:02.598Z,34.67
2018-03-19T20:06:29.054Z,31.23
2018-03-19T20:08:55.972Z,30.77
2018-03-19T20:11:22.317Z,28.60
2018-03-19T20:13:49.967Z,31.10
2018-03-19T20:17:52.374Z,32.50
2018-03-19T20:20:18.602Z,35.50
2018-03-19T20:22:44.931Z,32.93
2018-03-19T20:25:12.384Z,29.37
2018-03-19T20:27:39.248Z,30.60
2018-03-19T20:30:05.534Z,28.00
2018-03-19T20:32:32.423Z,28.87
2018-03-19T20:34:59.348Z,27.50
2018-03-19T20:37:25.593Z,27.83
2018-03-19T20:39:51.831Z,23.47
2018-03-19T20:42:18.092Z,27.07
2018-03-19T20:44:45.017Z,29.03
2018-03-19T20:47:11.891Z,32.40
2018-03-19T20:49:38.147Z,27.27
2018-03-19T20:52:05.064Z,31.20
2018-03-19T20:54:31.373Z,30.53
2018-03-19T20:56:57.866Z,38.83
2018-03-19T20:59:24.680Z,31.90
2018-03-19T21:01:50.931Z,27.43
2018-03-19T21:04:17.171Z,28.97
2018-03-19T21:06:43.695Z,29.10
2018-03-19T21:09:09.968Z,27.13
